createdAt,value
2022-08-28T00:01:55.667Z,19.84
2022-08-28T00:04:22.309Z,19.77
2022-08-28T00:06:49.241Z,19.76
2022-08-28T00:09:15.745Z,19.81
2022-08-28T00:11:42.302Z,19.88
2022-08-28T00:14:10.843Z,19.87
2022-08-28T00:16:37.645Z,19.61
2022-08-28T00:19:05.013Z,19.65
2022-08-28T00:21:32.277Z,19.74
2022-08-28T00:24:00.006Z,19.68
2022-08-28T00:26:26.625Z,19.72
2022-08-28T00:28:53.223Z,19.81
2022-08-28T00:31:19.857Z,19.78
2022-08-28T00:33:48.164Z,19.78
2022-08-28T00:36:14.899Z,19.79
2022-08-28T00:38:41.414Z,19.53
2022-08-28T00:41:09.059Z,19.68
2022-08-28T00:43:44.498Z,19.76
2022-08-28T00:46:20.987Z,19.78
2022-08-28T00:48:48.032Z,19.75
2022-08-28T00:51:16.450Z,19.70
2022-08-28T00:53:43.517Z,19.63
2022-08-28T00:56:13.136Z,19.78
2022-08-28T00:58:40.686Z,19.88
2022-08-28T01:01:07.183Z,19.59
2022-08-28T01:03:33.734Z,19.59
2022-08-28T01:06:00.438Z,19.61
2022-08-28T01:08:30.287Z,19.58
2022-08-28T01:10:59.472Z,19.71
2022-08-28T01:13:26.647Z,19.66
2022-08-28T01:15:54.291Z,19.55
2022-08-28T01:18:21.166Z,19.76
2022-08-28T01:20:56.691Z,19.68
2022-08-28T01:23:28.803Z,19.32
2022-08-28T01:25:55.332Z,19.17
2022-08-28T01:28:21.891Z,19.09
2022-08-28T01:30:49.056Z,19.22
2022-08-28T01:33:15.917Z,19.09
2022-08-28T01:35:45.034Z,19.22
2022-08-28T01:38:12.122Z,19.05
2022-08-28T01:40:46.779Z,19.20
2022-08-28T01:43:17.327Z,18.88
2022-08-28T01:45:46.855Z,18.63
2022-08-28T01:48:15.350Z,18.51
2022-08-28T01:50:42.106Z,18.34
2022-08-28T01:53:11.954Z,18.11
2022-08-28T01:55:39.306Z,18.02
2022-08-28T01:58:06.918Z,17.98
2022-08-28T02:00:33.481Z,17.86
2022-08-28T02:03:00.318Z,17.92
2022-08-28T02:05:30.122Z,17.82
2022-08-28T02:07:57.801Z,17.86
2022-08-28T02:10:26.441Z,17.90
2022-08-28T02:12:54.973Z,17.99
2022-08-28T02:15:27.701Z,17.98
2022-08-28T02:17:54.654Z,17.98
2022-08-28T02:20:21.490Z,17.99
2022-08-28T02:22:48.497Z,17.98
2022-08-28T02:25:15.309Z,17.82
2022-08-28T02:27:41.798Z,17.93
2022-08-28T02:30:10.404Z,17.88
2022-08-28T02:32:37.039Z,17.90
2022-08-28T02:35:05.445Z,18.03
2022-08-28T02:37:38.431Z,17.93
2022-08-28T02:40:05.662Z,17.78
2022-08-28T02:42:32.205Z,17.75
2022-08-28T02:44:58.702Z,17.72
2022-08-28T02:47:25.285Z,17.85
2022-08-28T02:49:51.802Z,17.91
2022-08-28T02:52:18.433Z,17.78
2022-08-28T02:54:45.744Z,17.85
2022-08-28T02:57:12.368Z,17.76
2022-08-28T02:59:38.916Z,17.77
2022-08-28T03:02:06.483Z,17.65
2022-08-28T03:04:42.119Z,17.72
2022-08-28T03:07:08.616Z,17.85
2022-08-28T03:09:37.658Z,17.78
2022-08-28T03:12:05.117Z,17.86
2022-08-28T03:14:31.676Z,17.82
2022-08-28T03:16:58.253Z,17.96
2022-08-28T03:19:24.823Z,18.00
2022-08-28T03:21:54.222Z,17.82
2022-08-28T03:24:20.839Z,17.98
2022-08-28T03:26:48.259Z,17.90
2022-08-28T03:29:14.873Z,17.85
2022-08-28T03:31:41.383Z,17.89
2022-08-28T03:34:08.005Z,17.83
2022-08-28T03:36:34.611Z,17.74
2022-08-28T03:39:04.344Z,17.71
2022-08-28T03:41:31.634Z,17.60
2022-08-28T03:43:59.543Z,17.53
2022-08-28T03:46:27.501Z,17.60
2022-08-28T03:48:54.857Z,17.55
2022-08-28T03:51:29.200Z,17.48
2022-08-28T03:53:59.134Z,17.43
2022-08-28T03:56:27.891Z,17.40
2022-08-28T03:58:58.047Z,17.41
2022-08-28T04:01:25.473Z,17.43
2022-08-28T04:03:52.051Z,17.38
2022-08-28T04:06:18.670Z,17.46
2022-08-28T04:08:45.456Z,17.40
2022-08-28T04:11:12.103Z,17.42
2022-08-28T04:13:38.653Z,17.36
2022-08-28T04:16:11.048Z,17.33
2022-08-28T04:18:40.625Z,17.28
2022-08-28T04:21:19.113Z,17.30
2022-08-28T04:23:46.841Z,17.29
2022-08-28T04:26:19.223Z,17.30
2022-08-28T04:28:46.554Z,17.39
2022-08-28T04:31:13.242Z,17.37
2022-08-28T04:33:39.902Z,17.33
2022-08-28T04:36:18.405Z,17.29
2022-08-28T04:38:45.083Z,17.30
2022-08-28T04:41:14.796Z,17.36
2022-08-28T04:43:42.376Z,17.28
2022-08-28T04:46:11.693Z,17.25
2022-08-28T04:48:38.977Z,17.27
2022-08-28T04:51:07.694Z,17.32
2022-08-28T04:53:34.281Z,17.28
2022-08-28T04:56:04.035Z,17.29
2022-08-28T04:58:30.825Z,17.35
2022-08-28T05:00:57.490Z,17.41
2022-08-28T05:03:24.027Z,17.27
2022-08-28T05:05:53.017Z,17.40
2022-08-28T05:08:22.831Z,17.51
2022-08-28T05:10:49.740Z,17.64
2022-08-28T05:13:18.194Z,17.61
2022-08-28T05:15:47.380Z,17.52
2022-08-28T05:18:15.034Z,17.67
2022-08-28T05:20:44.106Z,17.71
2022-08-28T05:23:11.829Z,17.66
2022-08-28T05:25:41.423Z,17.54
2022-08-28T05:28:11.491Z,17.59
2022-08-28T05:30:40.424Z,17.66
2022-08-28T05:33:07.853Z,17.81
2022-08-28T05:35:38.957Z,17.87
2022-08-28T05:38:06.757Z,17.95
2022-08-28T05:40:33.991Z,17.88
2022-08-28T05:43:00.513Z,17.87
2022-08-28T05:45:27.088Z,17.88
2022-08-28T05:47:53.566Z,18.01
2022-08-28T05:50:20.234Z,17.92
2022-08-28T05:52:46.867Z,18.09
2022-08-28T05:55:13.563Z,18.22
2022-08-28T05:57:40.446Z,18.10
2022-08-28T06:00:08.333Z,18.11
2022-08-28T06:02:34.821Z,18.22
2022-08-28T06:05:02.184Z,18.26
2022-08-28T06:07:28.713Z,18.28
2022-08-28T06:09:56.835Z,18.36
2022-08-28T06:12:23.351Z,18.56
2022-08-28T06:14:50.001Z,18.85
2022-08-28T06:17:16.678Z,18.84
2022-08-28T06:19:50.071Z,18.79
2022-08-28T06:22:16.556Z,18.96
2022-08-28T06:24:43.082Z,18.94
2022-08-28T06:27:09.602Z,18.93
2022-08-28T06:29:36.111Z,19.07
2022-08-28T06:32:03.762Z,18.99
2022-08-28T06:34:30.419Z,19.05
2022-08-28T06:36:56.925Z,19.22
2022-08-28T06:39:23.536Z,19.42
2022-08-28T06:41:50.267Z,19.59
2022-08-28T06:44:18.911Z,19.82
2022-08-28T06:46:46.658Z,19.99
2022-08-28T06:49:13.510Z,20.11
2022-08-28T06:51:40.527Z,20.17
2022-08-28T06:54:07.637Z,20.09
2022-08-28T06:56:34.556Z,20.14
2022-08-28T06:59:01.048Z,20.26
2022-08-28T07:01:33.897Z,20.49
2022-08-28T07:04:04.404Z,20.61
2022-08-28T07:06:35.263Z,20.88
2022-08-28T07:09:04.496Z,20.88
2022-08-28T07:11:31.936Z,21.03
2022-08-28T07:13:59.079Z,21.04
2022-08-28T07:16:29.720Z,21.13
2022-08-28T07:18:56.917Z,20.98
2022-08-28T07:21:23.451Z,21.03
2022-08-28T07:23:50.707Z,21.24
2022-08-28T07:26:22.540Z,21.49
2022-08-28T07:28:49.836Z,21.62
2022-08-28T07:31:20.056Z,21.70
2022-08-28T07:33:46.803Z,21.68
2022-08-28T07:36:29.052Z,22.22
2022-08-28T07:38:58.207Z,22.33
2022-08-28T07:41:27.629Z,22.26
2022-08-28T07:43:54.257Z,22.30
2022-08-28T07:46:20.836Z,22.39
2022-08-28T07:48:47.434Z,22.24
2022-08-28T07:51:13.980Z,22.23
2022-08-28T07:53:40.490Z,22.35
2022-08-28T07:56:07.148Z,22.52
2022-08-28T07:58:33.765Z,23.01
2022-08-28T08:01:00.682Z,23.16
2022-08-28T08:03:30.787Z,23.25
2022-08-28T08:06:03.003Z,22.92
2022-08-28T08:08:31.063Z,22.76
2022-08-28T08:11:11.359Z,22.59
2022-08-28T08:13:45.108Z,22.63
2022-08-28T08:16:18.050Z,23.11
2022-08-28T08:18:45.135Z,23.42
2022-08-28T08:21:14.007Z,23.46
2022-08-28T08:23:40.855Z,23.62
2022-08-28T08:26:10.954Z,23.75
2022-08-28T08:28:39.125Z,23.70
2022-08-28T08:31:10.330Z,23.44
2022-08-28T08:33:39.091Z,23.40
2022-08-28T08:36:07.085Z,23.35
2022-08-28T08:38:34.496Z,23.65
2022-08-28T08:41:04.738Z,23.72
2022-08-28T08:43:34.481Z,23.85
2022-08-28T08:46:01.062Z,23.55
2022-08-28T08:48:34.249Z,23.07
2022-08-28T08:51:14.684Z,22.91
2022-08-28T08:53:48.835Z,22.90
2022-08-28T08:56:17.631Z,23.14
2022-08-28T08:58:49.470Z,22.83
2022-08-28T09:01:44.211Z,22.45
2022-08-28T09:04:16.798Z,22.52
2022-08-28T09:07:16.907Z,22.61
2022-08-28T09:09:50.568Z,22.63
2022-08-28T09:12:28.222Z,23.22
2022-08-28T09:15:03.523Z,22.96
2022-08-28T09:17:34.500Z,23.09
2022-08-28T09:20:01.045Z,23.01
2022-08-28T09:22:27.644Z,22.62
2022-08-28T09:24:54.972Z,22.82
2022-08-28T09:27:23.798Z,22.72
2022-08-28T09:30:08.424Z,23.62
2022-08-28T09:32:38.316Z,23.55
2022-08-28T09:35:15.313Z,23.45
2022-08-28T09:37:43.209Z,23.29
2022-08-28T09:40:17.633Z,23.07
2022-08-28T09:43:06.781Z,23.42
2022-08-28T09:45:33.402Z,23.35
2022-08-28T09:48:00.273Z,23.24
2022-08-28T09:50:40.647Z,23.46
2022-08-28T09:53:10.707Z,23.80
2022-08-28T09:55:46.648Z,24.18
2022-08-28T09:58:13.952Z,24.15
2022-08-28T10:00:51.230Z,24.26
2022-08-28T10:03:34.541Z,24.62
2022-08-28T10:06:10.043Z,24.75
2022-08-28T10:08:51.697Z,24.29
2022-08-28T10:11:29.879Z,23.87
2022-08-28T10:14:34.523Z,23.90
2022-08-28T10:17:29.056Z,24.43
2022-08-28T10:20:20.160Z,24.71
2022-08-28T10:22:49.566Z,24.68
2022-08-28T10:25:17.863Z,24.50
2022-08-28T10:28:15.691Z,24.13
2022-08-28T10:30:58.691Z,24.11
2022-08-28T10:33:38.230Z,24.05
2022-08-28T10:36:34.671Z,24.41
2022-08-28T10:39:10.592Z,23.99
2022-08-28T10:41:58.380Z,23.96
2022-08-28T10:44:39.223Z,23.94
2022-08-28T10:47:07.760Z,24.43
2022-08-28T10:49:40.647Z,24.50
2022-08-28T10:52:11.443Z,24.14
2022-08-28T10:54:46.533Z,24.30
2022-08-28T10:57:39.414Z,25.04
2022-08-28T11:00:18.872Z,24.87
2022-08-28T11:02:48.114Z,25.22
2022-08-28T11:05:14.978Z,25.17
2022-08-28T11:07:45.041Z,25.31
2022-08-28T11:10:30.415Z,25.72
2022-08-28T11:12:59.574Z,26.55
2022-08-28T11:15:36.459Z,26.68
2022-08-28T11:18:17.455Z,26.78
2022-08-28T11:21:18.154Z,27.03
2022-08-28T11:24:09.498Z,26.93
2022-08-28T11:26:47.265Z,26.11
2022-08-28T11:29:54.117Z,25.81
2022-08-28T11:32:41.464Z,26.26
2022-08-28T11:35:46.306Z,26.76
2022-08-28T11:38:44.716Z,26.23
2022-08-28T11:41:16.165Z,26.92
2022-08-28T11:43:44.680Z,27.17
2022-08-28T11:46:16.949Z,27.15
2022-08-28T11:48:49.782Z,27.55
2022-08-28T11:51:41.677Z,27.60
2022-08-28T11:54:32.355Z,27.87
2022-08-28T11:57:10.414Z,27.33
2022-08-28T11:59:39.658Z,27.67
2022-08-28T12:02:24.815Z,27.53
2022-08-28T12:04:51.519Z,27.46
2022-08-28T12:07:20.290Z,27.43
2022-08-28T12:09:48.573Z,27.32
2022-08-28T12:12:21.824Z,27.46
2022-08-28T12:14:48.441Z,27.24
2022-08-28T12:17:15.018Z,26.92
2022-08-28T12:19:55.854Z,26.76
2022-08-28T12:22:41.874Z,26.86
2022-08-28T12:25:19.054Z,26.79
2022-08-28T12:27:45.690Z,26.43
2022-08-28T12:30:12.343Z,26.31
2022-08-28T12:32:44.812Z,26.23
2022-08-28T12:35:23.984Z,26.24
2022-08-28T12:37:53.605Z,25.98
2022-08-28T12:40:46.977Z,26.10
2022-08-28T12:43:28.730Z,25.83
2022-08-28T12:46:19.257Z,25.87
2022-08-28T12:49:01.055Z,25.92
2022-08-28T12:51:36.160Z,25.91
2022-08-28T12:54:07.778Z,25.92
2022-08-28T12:56:37.009Z,25.61
2022-08-28T12:59:27.516Z,25.59
2022-08-28T13:01:54.952Z,25.58
2022-08-28T13:04:28.685Z,25.60
2022-08-28T13:07:12.609Z,25.39
2022-08-28T13:09:48.672Z,25.33
2022-08-28T13:12:56.291Z,25.56
2022-08-28T13:15:42.548Z,25.51
2022-08-28T13:18:09.471Z,25.29
2022-08-28T13:20:37.659Z,25.01
2022-08-28T13:23:05.093Z,24.92
2022-08-28T13:25:36.829Z,24.87
2022-08-28T13:28:12.764Z,25.33
2022-08-28T13:30:39.666Z,25.35
2022-08-28T13:33:24.033Z,25.10
2022-08-28T13:35:51.694Z,25.48
2022-08-28T13:38:21.657Z,25.47
2022-08-28T13:41:12.901Z,25.43
2022-08-28T13:43:44.968Z,25.41
2022-08-28T13:46:11.700Z,25.57
2022-08-28T13:48:38.447Z,25.40
2022-08-28T13:51:10.761Z,25.35
2022-08-28T13:53:41.593Z,25.38
2022-08-28T13:56:08.177Z,25.46
2022-08-28T13:58:34.914Z,25.18
2022-08-28T14:01:02.731Z,25.35
2022-08-28T14:03:29.294Z,25.13
2022-08-28T14:05:56.531Z,25.36
2022-08-28T14:08:23.044Z,25.35
2022-08-28T14:10:50.873Z,25.46
2022-08-28T14:13:17.407Z,25.53
2022-08-28T14:15:43.884Z,25.56
2022-08-28T14:18:10.366Z,25.66
2022-08-28T14:20:37.793Z,25.25
2022-08-28T14:23:04.300Z,25.42
2022-08-28T14:25:30.878Z,25.73
2022-08-28T14:27:57.865Z,25.74
2022-08-28T14:30:24.916Z,25.62
2022-08-28T14:32:51.671Z,25.40
2022-08-28T14:35:18.185Z,25.60
2022-08-28T14:37:44.666Z,25.62
2022-08-28T14:40:13.087Z,25.85
2022-08-28T14:42:39.888Z,26.17
2022-08-28T14:45:07.231Z,26.19
2022-08-28T14:47:33.752Z,26.12
2022-08-28T14:50:00.321Z,26.37
2022-08-28T14:52:26.920Z,26.41
2022-08-28T14:54:53.430Z,26.45
2022-08-28T14:57:20.647Z,26.59
2022-08-28T14:59:48.259Z,26.06
2022-08-28T15:02:14.733Z,26.14
2022-08-28T15:04:41.850Z,26.45
2022-08-28T15:07:10.835Z,26.30
2022-08-28T15:09:40.746Z,26.35
2022-08-28T15:12:07.788Z,26.19
2022-08-28T15:14:35.173Z,26.36
2022-08-28T15:17:02.051Z,26.42
2022-08-28T15:19:28.853Z,26.10
2022-08-28T15:21:56.589Z,26.24
2022-08-28T15:24:25.680Z,26.05
2022-08-28T15:26:52.418Z,25.89
2022-08-28T15:29:19.691Z,25.94
2022-08-28T15:31:48.129Z,25.99
2022-08-28T15:34:18.141Z,26.23
2022-08-28T15:36:54.693Z,26.52
2022-08-28T15:39:26.325Z,26.44
2022-08-28T15:41:52.883Z,26.63
2022-08-28T15:44:19.469Z,26.70
2022-08-28T15:46:52.924Z,26.64
2022-08-28T15:49:23.890Z,26.70
2022-08-28T15:51:51.279Z,26.60
2022-08-28T15:54:17.906Z,26.21
2022-08-28T15:56:45.033Z,26.11
2022-08-28T15:59:12.115Z,26.03
2022-08-28T16:01:38.914Z,25.95
2022-08-28T16:04:06.247Z,25.97
2022-08-28T16:06:33.560Z,25.90
2022-08-28T16:09:00.182Z,26.03
2022-08-28T16:11:27.004Z,26.28
2022-08-28T16:13:59.202Z,26.15
2022-08-28T16:16:26.007Z,25.82
2022-08-28T16:18:55.052Z,25.77
2022-08-28T16:21:28.304Z,25.87
2022-08-28T16:23:55.463Z,25.80
2022-08-28T16:26:22.537Z,25.74
2022-08-28T16:28:50.843Z,25.72
2022-08-28T16:37:55.433Z,25.41
2022-08-28T16:40:21.983Z,24.86
2022-08-28T16:42:51.588Z,24.72
2022-08-28T16:45:22.462Z,24.69
2022-08-28T16:47:49.278Z,24.76
2022-08-28T16:50:23.706Z,24.79
2022-08-28T16:52:50.837Z,24.56
2022-08-28T16:55:21.098Z,24.50
2022-08-28T16:57:47.704Z,24.43
2022-08-28T17:00:20.640Z,24.44
2022-08-28T17:02:47.215Z,24.14
2022-08-28T17:05:16.495Z,23.83
2022-08-28T17:07:43.015Z,23.80
2022-08-28T17:10:16.426Z,23.67
2022-08-28T17:13:05.719Z,23.62
2022-08-28T17:15:32.273Z,23.77
2022-08-28T17:17:58.840Z,23.89
2022-08-28T17:20:57.534Z,24.05
2022-08-28T17:23:27.208Z,23.88
2022-08-28T17:26:12.870Z,23.56
2022-08-28T17:32:27.981Z,23.50
2022-08-28T17:34:54.502Z,23.52
2022-08-28T17:37:21.022Z,23.54
2022-08-28T17:39:48.337Z,23.56
2022-08-28T17:42:15.035Z,23.64
2022-08-28T17:44:41.684Z,23.58
2022-08-28T17:47:08.235Z,23.68
2022-08-28T17:49:35.180Z,23.69
2022-08-28T17:54:42.408Z,23.47
2022-08-28T17:57:12.687Z,23.17
2022-08-28T17:59:39.347Z,22.97
2022-08-28T18:02:06.624Z,22.84
2022-08-28T18:04:33.956Z,22.92
2022-08-28T18:07:00.678Z,22.90
2022-08-28T18:09:27.544Z,22.79
2022-08-28T18:11:54.221Z,22.96
2022-08-28T18:14:21.282Z,22.77
2022-08-28T18:24:29.987Z,22.69
2022-08-28T18:30:34.343Z,22.70
2022-08-28T18:33:01.781Z,22.68
2022-08-28T18:35:31.691Z,22.50
2022-08-28T18:37:59.045Z,22.44
2022-08-28T18:40:25.828Z,22.35
2022-08-28T18:42:55.352Z,22.24
2022-08-28T18:51:43.827Z,22.08
2022-08-28T18:54:12.328Z,21.96
2022-08-28T18:57:03.877Z,21.93
2022-08-28T18:59:43.192Z,21.98
2022-08-28T19:02:18.107Z,21.93
2022-08-28T19:10:47.425Z,21.80
2022-08-28T19:13:14.267Z,21.85
2022-08-28T19:19:10.448Z,21.65
2022-08-28T19:21:52.825Z,21.72
2022-08-28T19:24:52.584Z,21.78
2022-08-28T19:27:22.235Z,21.84
2022-08-28T19:33:05.690Z,21.61
2022-08-28T19:35:32.172Z,21.68
2022-08-28T19:38:20.061Z,21.77
2022-08-28T19:41:06.113Z,21.65
2022-08-28T19:43:43.123Z,21.62
2022-08-28T19:46:19.590Z,21.58
2022-08-28T19:54:48.038Z,21.51
2022-08-28T19:57:16.904Z,21.47
2022-08-28T20:06:03.631Z,21.56
2022-08-28T20:08:31.017Z,21.54
2022-08-28T20:14:09.291Z,21.42
2022-08-28T20:16:36.948Z,21.47
2022-08-28T20:19:04.899Z,21.49
2022-08-28T20:21:42.866Z,21.39
2022-08-28T20:24:14.742Z,21.49
2022-08-28T20:26:43.735Z,21.34
2022-08-28T20:29:10.701Z,21.34
2022-08-28T20:34:44.598Z,21.41
2022-08-28T20:41:33.769Z,21.70
2022-08-28T20:44:24.493Z,21.19
2022-08-28T20:47:19.080Z,21.26
2022-08-28T20:50:31.390Z,21.19
2022-08-28T20:57:02.601Z,21.32
2022-08-28T21:03:25.151Z,21.27
2022-08-28T21:12:42.127Z,21.29
2022-08-28T21:15:25.420Z,21.31
2022-08-28T21:18:02.184Z,21.07
2022-08-28T21:24:20.233Z,20.90
2022-08-28T21:26:50.492Z,21.09
2022-08-28T21:29:29.535Z,21.04
2022-08-28T21:31:57.193Z,21.11
2022-08-28T21:34:23.795Z,21.10
2022-08-28T21:37:03.467Z,21.04
2022-08-28T21:39:36.870Z,21.05
2022-08-28T21:42:32.778Z,21.14
2022-08-28T21:45:27.285Z,21.02
2022-08-28T21:48:08.594Z,21.09
2022-08-28T22:02:03.531Z,21.14
2022-08-28T22:04:58.582Z,21.00
2022-08-28T22:07:49.153Z,20.67
2022-08-28T22:10:25.214Z,20.83
2022-08-28T22:13:29.177Z,20.66
2022-08-28T22:15:59.110Z,20.54
2022-08-28T22:19:01.427Z,20.57
2022-08-28T22:25:10.231Z,20.28
2022-08-28T22:27:49.884Z,20.27
2022-08-28T22:31:06.654Z,20.33
2022-08-28T22:36:45.064Z,20.13
2022-08-28T22:39:14.407Z,20.27
2022-08-28T22:45:27.450Z,20.09
2022-08-28T22:48:02.295Z,20.18
2022-08-28T22:50:28.915Z,20.06
2022-08-28T22:52:56.640Z,20.01
2022-08-28T22:55:23.546Z,20.00
2022-08-28T22:57:59.147Z,19.96
2022-08-28T23:01:03.449Z,20.05
2022-08-28T23:03:33.090Z,19.80
2022-08-28T23:06:01.152Z,19.73
2022-08-28T23:08:34.029Z,19.82
2022-08-28T23:11:01.217Z,19.62
2022-08-28T23:13:28.129Z,19.61
2022-08-28T23:16:00.266Z,19.72
2022-08-28T23:18:27.672Z,19.61
2022-08-28T23:21:01.794Z,19.74
2022-08-28T23:23:30.613Z,19.78
2022-08-28T23:25:57.117Z,19.76
2022-08-28T23:28:23.713Z,19.69
2022-08-28T23:31:17.175Z,19.68
2022-08-28T23:33:43.778Z,19.65
2022-08-28T23:36:10.686Z,19.70
2022-08-28T23:38:42.871Z,19.68
2022-08-28T23:41:10.447Z,19.72
2022-08-28T23:43:37.193Z,19.66
2022-08-28T23:46:03.746Z,19.77
2022-08-28T23:48:31.727Z,19.77
2022-08-28T23:50:58.579Z,19.81
2022-08-28T23:53:25.297Z,19.74
2022-08-28T23:55:51.823Z,19.75
2022-08-28T23:58:30.078Z,19.73
